Helper, Utah
Current Conditions -  °F | °C
As of 2:53 AM on Sunday 21 Dec 2014 (Local Time) from KPUC Reporting Station
Haze Haze  
Wind Chill: 30°   Ceiling: 1400
Heat Index: 30°   Visibility: 6mi
Dew Point: 27°   Wind: 0mph
Humidity: 88%   Direction: NA
Pressure: 30.07"   Gusts: NA
Location:  39.68°N, 110.85°W
Report Text: KPUC 210953Z AUTO 00000KT 6SM BR OVC014 M01/M03 A3007 RMK AO2 SLP219 T10111028
Loading
Personal Weather Stations






























Interactive Weather Map New forecast layout! Learn more

10-Day Weather Forecast

Advertisements
Track Severe Weather on mobile